createdAt,value
2018-12-05T00:02:18.215Z,102258.91
2018-12-05T00:04:53.884Z,102254.38
2018-12-05T00:07:26.035Z,102257.11
2018-12-05T00:10:03.675Z,102264.66
2018-12-05T00:12:43.740Z,102266.44
2018-12-05T00:15:26.918Z,102263.78
2018-12-05T00:18:05.246Z,102260.22
2018-12-05T00:23:56.735Z,102256.68
2018-12-05T00:26:33.731Z,102255.78
2018-12-05T00:29:07.660Z,102261.97
2018-12-05T00:31:41.914Z,102263.68
2018-12-05T00:34:12.448Z,102269.95
2018-12-05T00:36:45.223Z,102265.47
2018-12-05T00:39:15.737Z,102264.19
2018-12-05T00:41:53.100Z,102261.54
2018-12-05T00:44:26.000Z,102275.74
2018-12-05T00:47:00.315Z,102268.17
2018-12-05T00:49:32.381Z,102257.48
2018-12-05T00:52:07.758Z,102266.86
2018-12-05T00:57:51.216Z,102274.41
2018-12-05T01:00:27.943Z,102276.19
2018-12-05T01:03:03.739Z,102289.88
2018-12-05T01:05:39.998Z,102275.69
2018-12-05T01:08:16.609Z,102277.04
2018-12-05T01:10:50.466Z,102288.11
2018-12-05T01:13:27.296Z,102302.30
2018-12-05T01:16:03.864Z,102307.16
2018-12-05T01:18:37.164Z,102308.48
2018-12-05T01:21:12.702Z,102311.13
2018-12-05T01:23:50.943Z,102315.58
2018-12-05T01:26:25.435Z,102300.52
2018-12-05T01:29:02.054Z,102312.44
2018-12-05T01:31:44.916Z,102295.66
2018-12-05T01:34:18.780Z,102299.18
2018-12-05T01:36:55.890Z,102301.84
2018-12-05T01:39:34.176Z,102303.59
2018-12-05T01:42:08.662Z,102313.34
2018-12-05T01:44:50.078Z,102307.13
2018-12-05T01:47:25.313Z,102307.10
2018-12-05T01:50:00.391Z,102303.16
2018-12-05T01:52:38.657Z,102305.39
2018-12-05T01:55:15.740Z,102310.22
2018-12-05T01:57:50.463Z,102305.82
2018-12-05T02:00:27.134Z,102309.80
2018-12-05T02:03:05.824Z,102309.80
2018-12-05T02:05:39.257Z,102310.23
2018-12-05T02:08:09.822Z,102315.98
2018-12-05T02:10:45.884Z,102311.11
2018-12-05T02:13:22.166Z,102317.34
2018-12-05T02:15:55.377Z,102319.09
2018-12-05T02:18:31.685Z,102313.77
2018-12-05T02:21:05.570Z,102313.31
2018-12-05T02:23:43.351Z,102314.66
2018-12-05T02:26:15.740Z,102310.68
2018-12-05T02:28:54.309Z,102314.66
2018-12-05T02:31:29.451Z,102308.45
2018-12-05T02:34:03.963Z,102306.70
2018-12-05T02:36:42.901Z,102312.43
2018-12-05T02:39:16.684Z,102298.27
2018-12-05T02:41:51.597Z,102298.67
2018-12-05T02:44:29.367Z,102286.73
2018-12-05T02:47:04.510Z,102293.83
2018-12-05T02:49:37.770Z,102292.52
2018-12-05T02:52:13.631Z,102289.40
2018-12-05T02:54:47.484Z,102290.69
2018-12-05T02:57:30.208Z,102289.37
2018-12-05T03:00:08.029Z,102287.59
2018-12-05T03:02:44.864Z,102288.91
2018-12-05T03:05:21.121Z,102295.97
2018-12-05T03:07:53.085Z,102304.80
2018-12-05T03:10:31.692Z,102300.81
2018-12-05T03:13:05.296Z,102301.69
2018-12-05T03:15:39.197Z,102305.67
2018-12-05T03:18:12.912Z,102301.69
2018-12-05T03:23:49.354Z,102308.32
2018-12-05T03:26:23.000Z,102311.87
2018-12-05T03:28:59.263Z,102314.04
2018-12-05T03:31:32.743Z,102312.26
2018-12-05T03:34:08.145Z,102313.12
2018-12-05T03:36:40.873Z,102312.20
2018-12-05T03:39:15.187Z,102305.17
2018-12-05T03:41:49.107Z,102315.77
2018-12-05T03:44:24.778Z,102324.08
2018-12-05T03:46:58.359Z,102319.30
2018-12-05T03:49:30.822Z,102324.95
2018-12-05T03:52:01.338Z,102334.23
2018-12-05T03:54:33.481Z,102321.94
2018-12-05T03:57:04.293Z,102330.77
2018-12-05T03:59:34.470Z,102335.20
2018-12-05T04:02:04.709Z,102335.62
2018-12-05T04:04:35.480Z,102328.58
2018-12-05T04:07:09.129Z,102330.77
2018-12-05T04:09:45.155Z,102338.27
2018-12-05T04:12:19.873Z,102333.88
2018-12-05T04:14:56.323Z,102334.29
2018-12-05T04:17:28.857Z,102328.58
2018-12-05T04:20:28.583Z,102330.35
2018-12-05T04:23:04.816Z,102334.23
2018-12-05T04:25:44.603Z,102335.71
2018-12-05T04:28:20.513Z,102337.95
2018-12-05T04:30:56.510Z,102342.41
2018-12-05T04:33:34.787Z,102336.20
2018-12-05T04:36:11.670Z,102333.17
2018-12-05T04:38:49.893Z,102338.44
2018-12-05T04:41:28.116Z,102333.59
2018-12-05T04:44:05.700Z,102344.16
2018-12-05T04:46:43.715Z,102335.29
2018-12-05T04:49:27.536Z,102337.95
2018-12-05T04:55:14.106Z,102347.14
2018-12-05T04:57:48.398Z,102342.29
2018-12-05T05:00:22.988Z,102342.28
2018-12-05T05:02:59.868Z,102355.89
2018-12-05T05:05:37.433Z,102353.75
2018-12-05T05:08:13.502Z,102359.87
2018-12-05T05:10:50.086Z,102351.00
2018-12-05T05:13:24.240Z,102352.77
2018-12-05T05:15:59.219Z,102362.05
2018-12-05T05:18:37.034Z,102357.61
2018-12-05T05:21:13.357Z,102355.31
2018-12-05T05:23:49.775Z,102363.31
2018-12-05T05:26:24.187Z,102364.19
2018-12-05T05:28:54.920Z,102363.39
2018-12-05T05:31:29.680Z,102366.89
2018-12-05T05:34:04.644Z,102368.67
2018-12-05T05:36:44.204Z,102367.83
2018-12-05T05:39:24.589Z,102368.67
2018-12-05T05:42:00.459Z,102362.51
2018-12-05T05:44:44.638Z,102367.30
2018-12-05T05:47:21.365Z,102359.41
2018-12-05T05:49:58.001Z,102374.79
2018-12-05T05:52:34.594Z,102370.27
2018-12-05T05:55:09.308Z,102376.95
2018-12-05T06:00:13.261Z,102378.63
2018-12-05T06:02:48.540Z,102385.20
2018-12-05T06:05:32.380Z,102380.45
2018-12-05T06:08:09.746Z,102386.08
2018-12-05T06:10:46.542Z,102383.98
2018-12-05T06:13:23.187Z,102381.25
2018-12-05T06:16:05.446Z,102387.50
2018-12-05T06:18:42.605Z,102389.14
2018-12-05T06:21:20.380Z,102387.25
2018-12-05T06:23:57.332Z,102385.08
2018-12-05T06:26:31.532Z,102387.81
2018-12-05T06:29:08.080Z,102389.52
2018-12-05T06:31:54.604Z,102381.27
2018-12-05T06:34:33.304Z,102379.60
2018-12-05T06:37:10.089Z,102377.88
2018-12-05T06:39:46.864Z,102380.48
2018-12-05T06:42:21.277Z,102371.73
2018-12-05T06:44:58.078Z,102387.89
2018-12-05T06:47:35.051Z,102383.66
2018-12-05T06:50:16.012Z,102398.22
2018-12-05T06:52:56.045Z,102394.78
2018-12-05T06:55:39.042Z,102400.80
2018-12-05T06:58:22.822Z,102400.81
2018-12-05T07:03:29.421Z,102404.85
2018-12-05T07:06:04.150Z,102406.41
2018-12-05T07:08:36.826Z,102413.96
2018-12-05T07:11:11.143Z,102402.91
2018-12-05T07:13:47.158Z,102404.42
2018-12-05T07:16:22.607Z,102393.11
2018-12-05T07:18:57.998Z,102392.52
2018-12-05T07:21:35.086Z,102395.27
2018-12-05T07:24:10.310Z,102402.25
2018-12-05T07:26:48.220Z,102404.06
2018-12-05T07:29:22.416Z,102397.62
2018-12-05T07:31:58.398Z,102395.45
2018-12-05T07:34:34.876Z,102389.22
2018-12-05T07:37:23.401Z,102395.00
2018-12-05T07:40:01.317Z,102390.19
2018-12-05T07:42:39.458Z,102386.66
2018-12-05T07:45:14.076Z,102393.39
2018-12-05T07:47:55.912Z,102387.63
2018-12-05T07:50:30.244Z,102395.17
2018-12-05T07:53:06.399Z,102397.52
2018-12-05T07:55:45.465Z,102403.59
2018-12-05T07:58:28.167Z,102408.66
2018-12-05T08:01:04.247Z,102412.75
2018-12-05T08:14:37.555Z,102425.72
2018-12-05T08:17:21.923Z,102426.95
2018-12-05T08:19:59.273Z,102435.77
2018-12-05T08:22:39.829Z,102428.77
2018-12-05T08:25:17.387Z,102433.64
2018-12-05T08:28:12.439Z,102434.98
2018-12-05T08:30:53.301Z,102442.02
2018-12-05T08:33:40.539Z,102437.65
2018-12-05T08:36:17.710Z,102436.56
2018-12-05T08:42:26.721Z,102441.23
2018-12-05T08:45:03.739Z,102439.99
2018-12-05T08:47:38.000Z,102434.93
2018-12-05T08:50:19.123Z,102444.59
2018-12-05T08:52:55.900Z,102435.66
2018-12-05T08:55:30.171Z,102431.48
2018-12-05T08:58:07.837Z,102434.00
2018-12-05T09:00:44.127Z,102427.63
2018-12-05T09:03:20.729Z,102431.48
2018-12-05T09:05:51.359Z,102431.55
2018-12-05T09:08:22.040Z,102430.17
2018-12-05T09:10:52.782Z,102428.45
2018-12-05T09:13:24.550Z,102436.34
2018-12-05T09:15:55.351Z,102434.68
2018-12-05T09:18:26.825Z,102429.38
2018-12-05T09:20:59.455Z,102426.32
2018-12-05T09:23:30.918Z,102426.78
2018-12-05T09:26:01.575Z,102429.48
2018-12-05T09:28:32.842Z,102435.20
2018-12-05T09:31:03.523Z,102434.84
2018-12-05T09:33:35.291Z,102427.75
2018-12-05T09:36:07.032Z,102426.88
2018-12-05T09:38:37.571Z,102432.59
2018-12-05T09:41:08.512Z,102422.49
2018-12-05T09:43:40.654Z,102427.34
2018-12-05T09:48:55.764Z,102426.55
2018-12-05T09:51:26.377Z,102432.28
2018-12-05T09:54:22.165Z,102431.89
2018-12-05T09:56:53.609Z,102430.95
2018-12-05T09:59:26.520Z,102435.39
2018-12-05T10:05:11.150Z,102430.98
2018-12-05T10:07:47.773Z,102428.82
2018-12-05T10:10:18.689Z,102430.12
2018-12-05T10:12:49.549Z,102427.94
2018-12-05T10:15:44.754Z,102406.30
2018-12-05T10:18:28.297Z,102419.56
2018-12-05T10:27:23.274Z,102408.98
2018-12-05T10:29:56.739Z,102408.10
2018-12-05T10:32:32.809Z,102405.02
2018-12-05T10:35:03.784Z,102404.12
2018-12-05T10:40:53.473Z,102404.98
2018-12-05T10:43:27.509Z,102409.87
2018-12-05T10:46:08.044Z,102407.22
2018-12-05T10:48:50.697Z,102405.45
2018-12-05T10:51:26.111Z,102402.34
2018-12-05T10:54:25.362Z,102392.59
2018-12-05T11:03:24.135Z,102379.77
2018-12-05T11:07:02.336Z,102377.11
2018-12-05T11:13:08.883Z,102369.55
2018-12-05T11:15:48.023Z,102353.06
2018-12-05T14:45:23.653Z,117636.41
2018-12-05T14:47:54.722Z,117636.41
2018-12-05T14:50:25.560Z,117636.41
2018-12-05T14:52:56.368Z,117636.41
2018-12-05T14:55:26.919Z,117636.41
2018-12-05T14:57:57.505Z,117636.41
2018-12-05T15:00:28.485Z,117636.41
2018-12-05T15:03:00.022Z,117636.41
2018-12-05T15:05:30.881Z,117636.41
2018-12-05T15:08:03.461Z,117636.41
2018-12-05T15:10:34.152Z,117636.41
2018-12-05T15:13:05.057Z,117636.41
2018-12-05T15:15:35.618Z,117636.41
2018-12-05T15:18:06.470Z,117636.41
2018-12-05T15:20:37.209Z,117636.41
2018-12-05T15:23:07.860Z,117636.41
2018-12-05T15:25:38.652Z,117636.41
2018-12-05T15:28:09.581Z,117636.41
2018-12-05T15:30:40.394Z,117636.41
2018-12-05T15:33:27.313Z,117636.41
2018-12-05T15:35:58.374Z,117636.41
2018-12-05T15:41:45.644Z,117636.41
2018-12-05T15:44:16.316Z,117636.41
2018-12-05T15:46:47.896Z,117636.41
2018-12-05T15:49:18.486Z,117636.41
2018-12-05T15:51:49.189Z,117636.41
2018-12-05T15:54:19.946Z,117636.41
2018-12-05T15:56:51.990Z,117636.41
2018-12-05T15:59:22.769Z,117636.41
2018-12-05T16:01:53.645Z,117636.41
2018-12-05T16:04:24.284Z,117636.41
2018-12-05T16:06:54.801Z,117636.41
2018-12-05T16:09:25.557Z,117636.41
2018-12-05T23:50:23.173Z,101460.39
2018-12-05T23:53:10.324Z,101444.61
2018-12-05T23:55:51.682Z,101438.55
2018-12-05T23:58:27.969Z,101437.18
